createdAt,value
2019-02-19T00:01:37.368Z,12.00
2019-02-19T00:04:06.270Z,14.07
2019-02-19T00:06:33.394Z,13.43
2019-02-19T00:09:01.720Z,16.07
2019-02-19T00:11:31.107Z,15.20
2019-02-19T00:13:58.046Z,14.53
2019-02-19T00:16:25.199Z,14.90
2019-02-19T00:18:54.249Z,13.40
2019-02-19T00:21:21.241Z,15.47
2019-02-19T00:23:49.091Z,13.93
2019-02-19T00:26:17.122Z,13.37
2019-02-19T00:28:53.766Z,13.23
2019-02-19T00:31:20.456Z,14.40
2019-02-19T00:33:48.150Z,12.37
2019-02-19T00:36:14.926Z,13.17
2019-02-19T00:38:41.699Z,13.53
2019-02-19T00:41:14.563Z,12.77
2019-02-19T00:43:41.487Z,13.10
2019-02-19T00:46:11.787Z,14.43
2019-02-19T00:48:38.919Z,12.23
2019-02-19T00:51:05.849Z,11.00
2019-02-19T00:53:35.875Z,9.40
2019-02-19T00:56:03.579Z,10.20
2019-02-19T00:58:31.076Z,8.80
2019-02-19T01:00:58.671Z,12.57
2019-02-19T01:03:25.697Z,11.30
2019-02-19T01:05:52.867Z,13.00
2019-02-19T01:08:20.147Z,12.23
2019-02-19T01:10:46.841Z,12.60
2019-02-19T01:13:14.526Z,11.90
2019-02-19T01:15:41.875Z,13.50
2019-02-19T01:18:09.844Z,13.13
2019-02-19T01:20:37.026Z,10.80
2019-02-19T01:23:04.064Z,14.00
2019-02-19T01:25:31.359Z,11.53
2019-02-19T01:27:59.458Z,8.63
2019-02-19T01:30:26.487Z,9.00
2019-02-19T01:32:54.166Z,11.60
2019-02-19T01:35:21.547Z,9.17
2019-02-19T01:37:49.067Z,10.37
2019-02-19T01:40:16.129Z,10.93
2019-02-19T01:42:43.304Z,12.20
2019-02-19T01:45:10.590Z,11.50
2019-02-19T01:47:37.377Z,6.10
2019-02-19T01:50:07.633Z,12.67
2019-02-19T01:52:35.980Z,13.97
2019-02-19T01:55:10.866Z,12.57
2019-02-19T01:57:37.799Z,14.40
2019-02-19T02:00:04.988Z,16.00
2019-02-19T02:02:33.758Z,14.30
2019-02-19T02:05:01.625Z,15.53
2019-02-19T02:07:40.899Z,14.57
2019-02-19T02:10:07.925Z,13.90
2019-02-19T02:12:34.695Z,13.13
2019-02-19T02:15:01.907Z,15.87
2019-02-19T02:17:29.490Z,14.87
2019-02-19T02:19:56.939Z,13.70
2019-02-19T02:22:24.706Z,8.07
2019-02-19T02:24:51.751Z,14.40
2019-02-19T02:27:18.974Z,7.47
2019-02-19T02:29:45.674Z,9.47
2019-02-19T02:32:12.769Z,5.57
2019-02-19T02:34:39.810Z,4.90
2019-02-19T02:37:06.583Z,9.60
2019-02-19T02:39:33.279Z,7.57
2019-02-19T02:42:08.047Z,14.23
2019-02-19T02:44:34.999Z,8.67
2019-02-19T02:47:02.238Z,8.80
2019-02-19T02:49:28.977Z,8.27
2019-02-19T02:51:56.127Z,9.80
2019-02-19T02:54:22.914Z,9.67
2019-02-19T02:56:50.855Z,9.90
2019-02-19T02:59:17.636Z,8.33
2019-02-19T03:01:45.215Z,11.67
2019-02-19T03:04:11.927Z,10.40
2019-02-19T03:06:52.524Z,10.17
2019-02-19T03:09:19.220Z,8.17
2019-02-19T03:11:53.188Z,10.13
2019-02-19T03:14:29.018Z,16.83
2019-02-19T03:16:55.723Z,14.00
2019-02-19T03:19:22.916Z,13.37
2019-02-19T03:21:50.824Z,13.63
2019-02-19T03:24:29.734Z,16.00
2019-02-19T03:26:57.174Z,15.73
2019-02-19T03:29:24.092Z,11.47
2019-02-19T03:31:51.588Z,19.23
2019-02-19T03:34:19.366Z,13.30
2019-02-19T03:36:47.011Z,22.67
2019-02-19T03:39:14.015Z,13.60
2019-02-19T03:41:40.765Z,16.03
2019-02-19T03:44:08.098Z,12.40
2019-02-19T03:46:35.352Z,14.50
2019-02-19T03:49:02.722Z,12.90
2019-02-19T03:51:30.307Z,11.40
2019-02-19T03:53:57.559Z,12.90
2019-02-19T03:56:24.883Z,8.97
2019-02-19T03:58:51.670Z,20.37
2019-02-19T04:01:18.856Z,15.93
2019-02-19T04:03:46.677Z,9.97
2019-02-19T04:06:13.911Z,12.90
2019-02-19T04:08:41.684Z,12.97
2019-02-19T04:11:09.959Z,9.27
2019-02-19T04:13:36.634Z,21.40
2019-02-19T04:16:21.123Z,10.87
2019-02-19T04:18:43.730Z,15.37
2019-02-19T04:21:11.426Z,18.73
2019-02-19T04:23:56.793Z,18.60
2019-02-19T04:26:26.975Z,15.57
2019-02-19T04:28:53.642Z,16.17
2019-02-19T04:31:31.754Z,7.17
2019-02-19T04:33:58.477Z,15.60
2019-02-19T04:36:25.137Z,14.73
2019-02-19T04:39:04.451Z,20.03
2019-02-19T04:41:33.805Z,8.53
2019-02-19T04:44:00.860Z,18.60
2019-02-19T04:46:31.497Z,20.33
2019-02-19T04:48:56.912Z,16.40
2019-02-19T04:51:23.582Z,7.90
2019-02-19T04:53:51.022Z,10.30
2019-02-19T04:56:17.694Z,13.30
2019-02-19T04:58:44.852Z,23.53
2019-02-19T05:01:11.632Z,16.80
2019-02-19T05:03:39.698Z,15.27
2019-02-19T05:06:07.217Z,10.83
2019-02-19T05:08:35.654Z,9.70
2019-02-19T05:11:02.668Z,16.87
2019-02-19T05:13:29.346Z,16.50
2019-02-19T05:15:57.102Z,14.53
2019-02-19T05:18:25.354Z,16.23
2019-02-19T05:20:53.236Z,11.27
2019-02-19T05:23:20.409Z,16.20
2019-02-19T05:25:47.627Z,17.20
2019-02-19T05:28:15.275Z,18.10
2019-02-19T05:30:43.092Z,10.30
2019-02-19T05:33:10.358Z,9.20
2019-02-19T05:35:37.435Z,18.13
2019-02-19T05:38:04.201Z,17.23
2019-02-19T05:40:31.735Z,21.73
2019-02-19T05:42:58.678Z,26.90
2019-02-19T05:45:26.398Z,19.60
2019-02-19T05:47:53.687Z,23.80
2019-02-19T05:50:20.758Z,20.53
2019-02-19T05:52:48.189Z,16.57
2019-02-19T05:55:14.994Z,24.45
2019-02-19T05:57:41.672Z,18.25
2019-02-19T06:00:13.171Z,16.33
2019-02-19T06:02:40.394Z,12.28
2019-02-19T06:05:12.574Z,19.70
2019-02-19T06:07:39.735Z,18.02
2019-02-19T06:10:12.033Z,22.73
2019-02-19T06:12:38.835Z,15.85
2019-02-19T06:15:06.254Z,12.55
2019-02-19T06:17:33.880Z,17.48
2019-02-19T06:20:01.306Z,11.95
2019-02-19T06:22:28.833Z,14.20
2019-02-19T06:24:55.540Z,11.97
2019-02-19T06:27:22.334Z,23.12
2019-02-19T06:29:53.029Z,25.25
2019-02-19T06:32:20.229Z,17.77
2019-02-19T06:34:47.242Z,12.73
2019-02-19T06:37:14.028Z,23.30
2019-02-19T06:39:40.685Z,7.50
2019-02-19T06:42:08.001Z,15.23
2019-02-19T06:44:35.252Z,18.33
2019-02-19T06:47:06.956Z,23.37
2019-02-19T06:49:31.433Z,18.73
2019-02-19T06:51:58.711Z,16.83
2019-02-19T06:54:25.634Z,17.67
2019-02-19T06:56:53.133Z,16.60
2019-02-19T06:59:20.624Z,19.20
2019-02-19T07:02:00.910Z,17.63
2019-02-19T07:04:32.288Z,17.63
2019-02-19T07:06:59.379Z,22.27
2019-02-19T07:09:26.587Z,16.47
2019-02-19T07:11:53.531Z,16.73
2019-02-19T07:14:20.655Z,12.60
2019-02-19T07:16:48.023Z,20.13
2019-02-19T07:19:14.981Z,16.93
2019-02-19T07:21:42.669Z,18.00
2019-02-19T07:24:10.348Z,14.60
2019-02-19T07:26:37.502Z,21.03
2019-02-19T07:29:04.814Z,6.37
2019-02-19T07:31:32.081Z,16.77
2019-02-19T07:33:58.781Z,14.43
2019-02-19T07:36:25.695Z,14.90
2019-02-19T07:38:53.234Z,23.47
2019-02-19T07:41:20.284Z,15.13
2019-02-19T07:43:47.755Z,14.53
2019-02-19T07:46:14.846Z,13.20
2019-02-19T07:48:41.824Z,16.07
2019-02-19T07:51:08.524Z,38.90
2019-02-19T07:53:35.782Z,12.27
2019-02-19T07:56:26.991Z,13.87
2019-02-19T07:58:56.426Z,13.33
2019-02-19T08:01:23.588Z,10.70
2019-02-19T08:03:53.930Z,8.97
2019-02-19T08:06:22.165Z,11.10
2019-02-19T08:08:49.327Z,17.90
2019-02-19T08:11:17.025Z,11.63
2019-02-19T08:13:43.694Z,11.17
2019-02-19T08:16:10.379Z,9.47
2019-02-19T08:18:38.268Z,10.00
2019-02-19T08:21:06.130Z,19.20
2019-02-19T08:23:34.283Z,11.03
2019-02-19T08:26:01.862Z,14.77
2019-02-19T08:28:28.706Z,12.50
2019-02-19T08:30:55.880Z,12.00
2019-02-19T08:33:23.178Z,12.50
2019-02-19T08:35:50.420Z,15.27
2019-02-19T08:38:17.601Z,13.40
2019-02-19T08:40:44.525Z,9.77
2019-02-19T08:43:12.098Z,12.30
2019-02-19T08:45:40.144Z,19.10
2019-02-19T08:48:07.840Z,9.30
2019-02-19T08:50:34.960Z,16.73
2019-02-19T08:53:02.235Z,10.53
2019-02-19T08:55:29.059Z,15.87
2019-02-19T08:57:56.710Z,12.40
2019-02-19T09:00:24.026Z,12.50
2019-02-19T09:02:51.263Z,12.37
2019-02-19T09:05:18.292Z,11.10
2019-02-19T09:07:44.955Z,15.17
2019-02-19T09:10:12.468Z,11.27
2019-02-19T09:12:40.791Z,7.77
2019-02-19T09:15:11.116Z,14.57
2019-02-19T09:17:39.351Z,16.80
2019-02-19T09:20:06.811Z,16.90
2019-02-19T09:22:34.028Z,16.60
2019-02-19T09:25:01.284Z,13.10
2019-02-19T09:27:28.967Z,10.57
2019-02-19T09:29:55.897Z,14.00
2019-02-19T09:32:24.209Z,6.60
2019-02-19T09:34:52.648Z,12.80
2019-02-19T09:37:19.738Z,12.70
2019-02-19T09:39:47.693Z,8.33
2019-02-19T09:42:15.545Z,10.23
2019-02-19T09:44:43.016Z,7.47
2019-02-19T09:47:11.823Z,9.90
2019-02-19T09:49:39.060Z,10.60
2019-02-19T09:52:06.423Z,12.73
2019-02-19T09:54:33.119Z,10.07
2019-02-19T09:57:00.504Z,15.77
2019-02-19T09:59:27.955Z,9.83
2019-02-19T10:01:55.196Z,15.17
2019-02-19T10:04:22.865Z,14.30
2019-02-19T10:06:50.380Z,14.73
2019-02-19T10:09:17.336Z,14.93
2019-02-19T10:11:44.323Z,8.93
2019-02-19T10:14:11.091Z,7.40
2019-02-19T10:16:41.538Z,9.53
2019-02-19T10:19:08.035Z,14.57
2019-02-19T10:21:34.795Z,7.37
2019-02-19T10:24:02.263Z,15.20
2019-02-19T10:26:29.724Z,7.80
2019-02-19T10:28:57.953Z,11.33
2019-02-19T10:31:25.091Z,6.90
2019-02-19T10:33:51.937Z,6.87
2019-02-19T10:36:18.874Z,5.57
2019-02-19T10:38:45.940Z,6.60
2019-02-19T10:41:12.636Z,12.17
2019-02-19T10:43:40.756Z,7.63
2019-02-19T10:46:10.753Z,12.20
2019-02-19T10:48:39.512Z,10.17
2019-02-19T10:51:26.215Z,11.10
2019-02-19T10:53:53.752Z,9.23
2019-02-19T10:56:21.869Z,10.87
2019-02-19T10:58:50.053Z,10.10
2019-02-19T11:01:17.773Z,9.90
2019-02-19T11:03:45.198Z,9.30
2019-02-19T11:06:11.899Z,11.00
2019-02-19T11:08:39.228Z,9.70
2019-02-19T11:11:07.478Z,8.90
2019-02-19T11:13:34.767Z,7.10
2019-02-19T11:16:03.474Z,6.53
2019-02-19T11:18:31.033Z,6.90
2019-02-19T11:20:58.292Z,9.63
2019-02-19T11:23:26.787Z,10.13
2019-02-19T11:25:55.887Z,11.80
2019-02-19T11:28:23.177Z,9.10
2019-02-19T11:30:50.226Z,11.07
2019-02-19T11:33:17.455Z,7.87
2019-02-19T11:35:44.144Z,6.17
2019-02-19T11:38:11.471Z,7.70
2019-02-19T11:40:38.838Z,5.43
2019-02-19T11:43:06.721Z,5.97
2019-02-19T11:45:33.511Z,8.97
2019-02-19T11:48:00.294Z,7.77
2019-02-19T11:50:27.978Z,10.17
2019-02-19T11:52:55.624Z,9.87
2019-02-19T11:55:23.018Z,6.53
2019-02-19T11:57:49.778Z,9.10
2019-02-19T12:00:20.826Z,9.60
2019-02-19T12:02:48.310Z,7.20
2019-02-19T12:05:15.074Z,7.40
2019-02-19T12:07:42.929Z,7.43
2019-02-19T12:10:11.904Z,8.80
2019-02-19T12:12:39.255Z,7.97
2019-02-19T12:15:07.064Z,8.33
2019-02-19T12:17:34.327Z,3.63
2019-02-19T12:20:01.630Z,5.27
2019-02-19T12:22:28.533Z,4.60
2019-02-19T12:24:55.649Z,6.30
2019-02-19T12:27:23.203Z,6.77
2019-02-19T12:29:50.350Z,12.67
2019-02-19T12:32:18.016Z,7.10
2019-02-19T12:34:45.695Z,7.27
2019-02-19T12:37:13.046Z,7.97
2019-02-19T12:39:40.804Z,7.80
2019-02-19T12:42:07.483Z,5.60
2019-02-19T12:44:35.306Z,8.63
2019-02-19T12:47:02.007Z,9.17
2019-02-19T12:49:29.918Z,5.83
2019-02-19T12:51:56.699Z,7.70
2019-02-19T12:54:24.013Z,6.53
2019-02-19T12:56:51.779Z,5.90
2019-02-19T12:59:18.802Z,7.57
2019-02-19T13:01:45.598Z,7.87
2019-02-19T13:04:13.219Z,7.60
2019-02-19T13:06:40.485Z,7.10
2019-02-19T13:09:08.617Z,8.70
2019-02-19T13:11:36.618Z,4.60
2019-02-19T13:14:04.384Z,8.67
2019-02-19T13:16:31.425Z,6.27
2019-02-19T13:19:03.593Z,10.47
2019-02-19T13:21:27.985Z,8.83
2019-02-19T13:23:55.072Z,11.40
2019-02-19T13:26:22.581Z,9.87
2019-02-19T13:28:49.778Z,19.43
2019-02-19T13:31:17.210Z,9.13
2019-02-19T13:33:44.321Z,3.60
2019-02-19T13:36:11.445Z,12.40
2019-02-19T13:38:38.370Z,15.77
2019-02-19T13:41:05.784Z,5.93
2019-02-19T13:43:33.555Z,7.93
2019-02-19T13:46:01.409Z,6.93
2019-02-19T13:48:28.722Z,14.33
2019-02-19T13:50:55.614Z,15.00
2019-02-19T13:53:28.278Z,10.00
2019-02-19T13:55:56.954Z,10.83
2019-02-19T13:58:24.017Z,15.07
2019-02-19T14:00:51.346Z,4.40
2019-02-19T14:03:18.369Z,14.13
2019-02-19T14:05:46.655Z,7.90
2019-02-19T14:08:15.732Z,7.50
2019-02-19T14:10:43.845Z,11.17
2019-02-19T14:13:11.550Z,6.47
2019-02-19T14:15:44.798Z,8.57
2019-02-19T14:18:14.574Z,8.47
2019-02-19T14:20:59.601Z,6.70
2019-02-19T14:24:02.706Z,8.53
2019-02-19T14:26:57.846Z,4.43
2019-02-19T14:29:47.778Z,8.30
2019-02-19T14:32:28.371Z,7.27
2019-02-19T14:35:20.795Z,7.77
2019-02-19T14:37:57.547Z,3.50
2019-02-19T14:40:45.176Z,6.63
2019-02-19T14:43:25.425Z,7.30
2019-02-19T14:46:21.054Z,5.53
2019-02-19T14:49:36.637Z,11.40
2019-02-19T14:52:01.045Z,4.57
2019-02-19T14:54:37.419Z,5.90
2019-02-19T14:57:23.075Z,8.80
2019-02-19T15:00:08.863Z,7.10
2019-02-19T15:02:58.884Z,3.70
2019-02-19T15:05:44.481Z,5.13
2019-02-19T15:08:31.348Z,6.37
2019-02-19T15:11:16.422Z,4.50
2019-02-19T15:14:01.595Z,5.53
2019-02-19T15:16:39.905Z,3.30
2019-02-19T15:19:22.445Z,3.90
2019-02-19T15:22:27.054Z,2.43
2019-02-19T15:25:12.058Z,2.23
2019-02-19T15:28:17.323Z,3.40
2019-02-19T15:30:56.391Z,4.07
2019-02-19T15:33:52.561Z,4.53
2019-02-19T15:36:37.858Z,2.70
2019-02-19T15:39:25.044Z,2.87
2019-02-19T15:42:11.252Z,4.43
2019-02-19T15:44:59.160Z,3.70
2019-02-19T15:48:04.187Z,4.03
2019-02-19T15:50:49.698Z,4.50
2019-02-19T15:53:45.293Z,5.87
2019-02-19T15:56:38.118Z,5.13
2019-02-19T15:59:28.222Z,4.40
2019-02-19T16:02:14.815Z,6.70
2019-02-19T16:04:57.943Z,3.00
2019-02-19T16:07:33.485Z,4.83
2019-02-19T16:10:28.690Z,6.90
2019-02-19T16:13:04.372Z,5.10
2019-02-19T16:15:53.787Z,4.70
2019-02-19T16:18:39.155Z,5.43
2019-02-19T16:21:28.656Z,4.77
2019-02-19T16:24:27.894Z,3.63
2019-02-19T16:27:17.670Z,2.07
2019-02-19T16:30:02.462Z,5.33
2019-02-19T16:32:54.633Z,3.57
2019-02-19T16:35:44.482Z,4.53
2019-02-19T16:38:30.818Z,5.27
2019-02-19T16:45:30.144Z,6.07
2019-02-19T16:55:19.097Z,5.57
2019-02-19T17:00:59.977Z,5.53
2019-02-19T17:03:43.709Z,4.20
2019-02-19T17:06:20.316Z,3.33
2019-02-19T17:08:55.563Z,4.80
2019-02-19T17:11:51.431Z,5.43
2019-02-19T17:14:38.909Z,3.40
2019-02-19T17:17:18.213Z,2.27
2019-02-19T17:20:03.810Z,1.77
2019-02-19T17:22:54.521Z,4.43
2019-02-19T17:25:38.461Z,4.10
2019-02-19T17:29:05.308Z,1.97
2019-02-19T17:32:04.450Z,4.30
2019-02-19T17:34:54.622Z,2.47
2019-02-19T17:37:38.837Z,2.53
2019-02-19T17:40:24.961Z,3.93
2019-02-19T17:43:06.306Z,3.67
2019-02-19T17:46:28.778Z,1.50
2019-02-19T17:49:11.675Z,3.43
2019-02-19T17:51:58.853Z,3.87
2019-02-19T17:54:51.054Z,3.80
2019-02-19T17:58:39.346Z,2.83
2019-02-19T18:00:54.469Z,2.07
2019-02-19T18:03:41.305Z,3.53
2019-02-19T18:06:28.597Z,3.33
2019-02-19T18:09:14.937Z,3.37
2019-02-19T18:11:54.156Z,3.37
2019-02-19T18:14:30.090Z,2.43
2019-02-19T18:17:17.102Z,1.30
2019-02-19T18:19:44.817Z,2.90
2019-02-19T18:22:11.787Z,4.87
2019-02-19T18:24:39.152Z,6.13
2019-02-19T18:27:05.818Z,4.97
2019-02-19T18:29:33.032Z,2.30
2019-02-19T18:32:00.001Z,3.93
2019-02-19T18:34:27.305Z,4.17
2019-02-19T18:36:53.977Z,4.50
2019-02-19T18:39:21.418Z,3.07
2019-02-19T18:41:48.687Z,5.77
2019-02-19T18:44:15.597Z,4.10
2019-02-19T18:46:43.011Z,5.20
2019-02-19T18:49:09.660Z,3.93
2019-02-19T18:51:36.353Z,4.03
2019-02-19T18:54:03.231Z,4.47
2019-02-19T18:56:30.991Z,4.60
2019-02-19T18:58:57.649Z,5.20
2019-02-19T19:01:25.192Z,4.57
2019-02-19T19:03:52.812Z,4.50
2019-02-19T19:06:19.982Z,4.77
2019-02-19T19:08:47.658Z,2.80
2019-02-19T19:11:14.823Z,5.40
2019-02-19T19:13:41.847Z,1.23
2019-02-19T19:16:10.153Z,3.50
2019-02-19T19:18:37.788Z,5.07
2019-02-19T19:21:08.219Z,1.70
2019-02-19T19:23:36.138Z,4.37
2019-02-19T19:26:03.378Z,4.60
2019-02-19T19:28:31.463Z,4.07
2019-02-19T19:30:58.956Z,6.10
2019-02-19T19:33:25.614Z,3.80
2019-02-19T19:35:53.432Z,3.67
2019-02-19T19:38:21.981Z,6.23
2019-02-19T19:40:50.611Z,4.87
2019-02-19T19:43:18.688Z,4.63
2019-02-19T19:45:46.308Z,2.23
2019-02-19T19:48:12.972Z,5.73
2019-02-19T19:50:40.885Z,2.87
2019-02-19T19:53:07.665Z,5.43
2019-02-19T19:55:34.712Z,4.90
2019-02-19T19:58:01.365Z,4.70
2019-02-19T20:00:28.494Z,4.90
2019-02-19T20:02:55.893Z,4.57
2019-02-19T20:05:23.470Z,5.53
2019-02-19T20:07:51.851Z,4.77
2019-02-19T20:10:19.701Z,3.47
2019-02-19T20:12:46.811Z,5.10
2019-02-19T20:15:13.593Z,6.33
2019-02-19T20:17:41.381Z,5.30
2019-02-19T20:20:08.746Z,5.07
2019-02-19T20:22:35.531Z,2.13
2019-02-19T20:25:03.769Z,3.97
2019-02-19T20:27:33.018Z,5.37
2019-02-19T20:29:59.982Z,2.37
2019-02-19T20:32:27.863Z,2.80
2019-02-19T20:34:55.213Z,3.20
2019-02-19T20:37:22.435Z,4.23
2019-02-19T20:39:50.416Z,3.50
2019-02-19T20:42:18.039Z,5.37
2019-02-19T20:44:46.227Z,3.97
2019-02-19T20:47:13.606Z,4.37
2019-02-19T20:49:40.910Z,3.17
2019-02-19T20:52:08.334Z,4.03
2019-02-19T20:54:35.670Z,5.33
2019-02-19T20:57:02.642Z,1.77
2019-02-19T20:59:30.020Z,3.90
2019-02-19T21:01:57.761Z,5.47
2019-02-19T21:04:24.489Z,3.17
2019-02-19T21:06:51.338Z,5.50
2019-02-19T21:09:18.669Z,3.33
2019-02-19T21:11:45.878Z,3.10
2019-02-19T21:14:14.268Z,4.10
2019-02-19T21:16:41.882Z,5.87
2019-02-19T21:19:09.688Z,3.80
2019-02-19T21:21:44.798Z,2.73
2019-02-19T21:24:06.601Z,6.87
2019-02-19T21:26:33.383Z,3.70
2019-02-19T21:29:00.730Z,3.73
2019-02-19T21:31:28.029Z,3.47
2019-02-19T21:33:56.026Z,5.43
2019-02-19T21:36:22.813Z,4.57
2019-02-19T21:38:52.428Z,2.93
2019-02-19T21:41:19.328Z,3.80
2019-02-19T21:43:47.052Z,3.70
2019-02-19T21:46:13.974Z,3.13
2019-02-19T21:48:47.804Z,6.50
2019-02-19T21:51:10.672Z,2.33
2019-02-19T21:53:37.880Z,5.03
2019-02-19T21:56:05.766Z,4.70
2019-02-19T21:58:34.165Z,7.40
2019-02-19T22:01:01.643Z,7.03
2019-02-19T22:03:30.086Z,5.83
2019-02-19T22:05:57.646Z,6.10
2019-02-19T22:08:24.907Z,2.70
2019-02-19T22:10:53.836Z,3.70
2019-02-19T22:13:21.153Z,3.30
2019-02-19T22:15:48.202Z,7.20
2019-02-19T22:18:14.913Z,4.77
2019-02-19T22:20:52.806Z,6.07
2019-02-19T22:23:20.531Z,3.27
2019-02-19T22:25:48.052Z,7.73
2019-02-19T22:28:17.516Z,7.03
2019-02-19T22:30:44.439Z,6.97
2019-02-19T22:33:11.643Z,4.67
2019-02-19T22:35:38.564Z,4.70
2019-02-19T22:38:06.089Z,6.22
2019-02-19T22:40:33.924Z,4.20
2019-02-19T22:43:01.588Z,3.73
2019-02-19T22:45:29.860Z,7.03
2019-02-19T22:47:56.808Z,6.30
2019-02-19T22:50:23.584Z,4.83
2019-02-19T22:52:52.305Z,4.80
2019-02-19T22:55:53.705Z,5.63
2019-02-19T22:58:23.505Z,4.53
2019-02-19T23:01:10.151Z,6.40
2019-02-19T23:03:38.648Z,6.77
2019-02-19T23:06:07.386Z,5.80
2019-02-19T23:08:34.629Z,6.10
2019-02-19T23:11:02.669Z,4.70
2019-02-19T23:13:29.584Z,6.57
2019-02-19T23:15:56.698Z,5.33
2019-02-19T23:18:24.231Z,6.63
2019-02-19T23:20:51.608Z,10.17
2019-02-19T23:23:19.675Z,5.77
2019-02-19T23:25:46.627Z,7.40
2019-02-19T23:28:13.966Z,4.37
2019-02-19T23:30:41.216Z,4.83
2019-02-19T23:33:08.742Z,6.40
2019-02-19T23:35:43.495Z,5.37
2019-02-19T23:38:12.196Z,5.63
2019-02-19T23:40:39.457Z,7.67
2019-02-19T23:43:07.205Z,7.43
2019-02-19T23:45:34.473Z,9.73
2019-02-19T23:48:01.613Z,4.47
2019-02-19T23:50:28.508Z,5.90
2019-02-19T23:52:55.249Z,7.97
2019-02-19T23:55:23.162Z,5.10
2019-02-19T23:57:50.519Z,6.60
